sensor_id;sensor_type;location;lat;lon;timestamp;P1;durP1;ratioP1;P2;durP2;ratioP2
52184;SDS011;38160;52.876;18.778;2022-07-06T01:03:14;6.20;;;2.67;;
52184;SDS011;38160;52.876;18.778;2022-07-06T01:05:46;7.85;;;3.10;;
52184;SDS011;38160;52.876;18.778;2022-07-06T01:08:20;6.78;;;2.90;;
52184;SDS011;38160;52.876;18.778;2022-07-06T01:10:54;6.72;;;3.33;;
52184;SDS011;38160;52.876;18.778;2022-07-06T01:13:26;12.25;;;3.65;;
52184;SDS011;38160;52.876;18.778;2022-07-06T01:16:04;8.98;;;3.17;;
52184;SDS011;38160;52.876;18.778;2022-07-06T01:18:36;11.70;;;3.10;;
52184;SDS011;38160;52.876;18.778;2022-07-06T01:21:10;7.67;;;3.47;;
52184;SDS011;38160;52.876;18.778;2022-07-06T01:23:44;8.10;;;3.50;;
52184;SDS011;38160;52.876;18.778;2022-07-06T01:26:18;7.95;;;3.30;;
52184;SDS011;38160;52.876;18.778;2022-07-06T01:28:54;8.08;;;3.45;;
52184;SDS011;38160;52.876;18.778;2022-07-06T01:31:26;6.67;;;3.10;;
52184;SDS011;38160;52.876;18.778;2022-07-06T01:33:58;8.50;;;3.55;;
52184;SDS011;38160;52.876;18.778;2022-07-06T01:36:30;8.35;;;3.55;;
52184;SDS011;38160;52.876;18.778;2022-07-06T01:39:02;9.33;;;4.05;;
52184;SDS011;38160;52.876;18.778;2022-07-06T01:41:34;6.03;;;3.50;;
52184;SDS011;38160;52.876;18.778;2022-07-06T01:44:06;7.72;;;3.50;;
52184;SDS011;38160;52.876;18.778;2022-07-06T01:46:38;7.60;;;3.75;;
52184;SDS011;38160;52.876;18.778;2022-07-06T01:49:12;8.20;;;3.60;;
52184;SDS011;38160;52.876;18.778;2022-07-06T01:51:44;10.18;;;4.20;;
52184;SDS011;38160;52.876;18.778;2022-07-06T01:54:16;8.90;;;3.77;;
52184;SDS011;38160;52.876;18.778;2022-07-06T01:56:47;10.50;;;4.20;;
52184;SDS011;38160;52.876;18.778;2022-07-06T01:59:19;9.78;;;3.75;;
52184;SDS011;38160;52.876;18.778;2022-07-06T02:01:51;9.68;;;3.70;;
52184;SDS011;38160;52.876;18.778;2022-07-06T02:04:23;8.33;;;4.15;;
52184;SDS011;38160;52.876;18.778;2022-07-06T02:06:54;9.43;;;4.50;;
52184;SDS011;38160;52.876;18.778;2022-07-06T02:09:27;7.97;;;4.03;;
52184;SDS011;38160;52.876;18.778;2022-07-06T02:11:59;9.45;;;4.25;;
52184;SDS011;38160;52.876;18.778;2022-07-06T02:14:31;8.48;;;4.15;;
52184;SDS011;38160;52.876;18.778;2022-07-06T02:17:03;10.45;;;4.28;;
52184;SDS011;38160;52.876;18.778;2022-07-06T03:02:42;13.62;;;6.42;;
52184;SDS011;38160;52.876;18.778;2022-07-06T04:12:00;13.93;;;5.83;;
52184;SDS011;38160;52.876;18.778;2022-07-06T04:20:52;16.42;;;8.95;;
52184;SDS011;38160;52.876;18.778;2022-07-06T04:23:29;13.65;;;7.95;;
52184;SDS011;38160;52.876;18.778;2022-07-06T04:25:59;15.15;;;7.03;;
52184;SDS011;38160;52.876;18.778;2022-07-06T04:31:56;12.43;;;5.58;;
52184;SDS011;38160;52.876;18.778;2022-07-06T04:34:28;11.22;;;5.40;;
52184;SDS011;38160;52.876;18.778;2022-07-06T04:40:25;12.90;;;5.53;;
52184;SDS011;38160;52.876;18.778;2022-07-06T04:42:58;10.75;;;5.20;;
52184;SDS011;38160;52.876;18.778;2022-07-06T04:45:30;8.83;;;3.92;;
52184;SDS011;38160;52.876;18.778;2022-07-06T04:48:03;9.88;;;4.35;;
52184;SDS011;38160;52.876;18.778;2022-07-06T04:50:35;10.63;;;4.72;;
52184;SDS011;38160;52.876;18.778;2022-07-06T04:56:34;9.20;;;4.30;;
52184;SDS011;38160;52.876;18.778;2022-07-06T04:59:07;10.50;;;4.17;;
52184;SDS011;38160;52.876;18.778;2022-07-06T05:01:40;11.43;;;3.83;;
52184;SDS011;38160;52.876;18.778;2022-07-06T05:04:19;13.35;;;4.40;;
52184;SDS011;38160;52.876;18.778;2022-07-06T05:09:49;8.95;;;4.00;;
52184;SDS011;38160;52.876;18.778;2022-07-06T05:12:22;8.63;;;4.12;;
52184;SDS011;38160;52.876;18.778;2022-07-06T05:14:55;9.25;;;4.00;;
52184;SDS011;38160;52.876;18.778;2022-07-06T05:17:38;10.30;;;3.98;;
52184;SDS011;38160;52.876;18.778;2022-07-06T05:24:01;7.53;;;4.25;;
52184;SDS011;38160;52.876;18.778;2022-07-06T05:26:35;12.82;;;4.20;;
52184;SDS011;38160;52.876;18.778;2022-07-06T05:32:43;9.53;;;3.83;;
52184;SDS011;38160;52.876;18.778;2022-07-06T11:10:45;6.50;;;1.85;;
52184;SDS011;38160;52.876;18.778;2022-07-06T11:56:49;13.05;;;2.15;;
52184;SDS011;38160;52.876;18.778;2022-07-06T12:02:08;7.42;;;2.42;;
52184;SDS011;38160;52.876;18.778;2022-07-06T12:04:39;10.70;;;2.15;;
52184;SDS011;38160;52.876;18.778;2022-07-06T12:07:14;10.80;;;2.10;;
52184;SDS011;38160;52.876;18.778;2022-07-06T12:09:48;10.13;;;2.27;;
52184;SDS011;38160;52.876;18.778;2022-07-06T12:12:20;6.62;;;2.05;;
52184;SDS011;38160;52.876;18.778;2022-07-06T12:14:51;6.97;;;1.90;;
52184;SDS011;38160;52.876;18.778;2022-07-06T12:17:24;5.30;;;1.75;;
52184;SDS011;38160;52.876;18.778;2022-07-06T12:19:56;3.30;;;2.08;;
52184;SDS011;38160;52.876;18.778;2022-07-06T12:22:28;15.28;;;2.60;;
52184;SDS011;38160;52.876;18.778;2022-07-06T12:25:01;6.17;;;2.05;;
52184;SDS011;38160;52.876;18.778;2022-07-06T12:27:33;8.63;;;2.27;;
52184;SDS011;38160;52.876;18.778;2022-07-06T12:30:09;8.95;;;2.10;;
52184;SDS011;38160;52.876;18.778;2022-07-06T12:32:42;5.40;;;1.75;;
52184;SDS011;38160;52.876;18.778;2022-07-06T12:35:14;9.50;;;1.75;;
52184;SDS011;38160;52.876;18.778;2022-07-06T12:37:56;30.25;;;3.75;;
52184;SDS011;38160;52.876;18.778;2022-07-06T12:40:28;5.03;;;2.08;;
52184;SDS011;38160;52.876;18.778;2022-07-06T12:43:00;10.90;;;2.20;;
52184;SDS011;38160;52.876;18.778;2022-07-06T12:45:32;9.93;;;1.90;;
52184;SDS011;38160;52.876;18.778;2022-07-06T12:48:04;6.70;;;1.87;;
52184;SDS011;38160;52.876;18.778;2022-07-06T12:50:37;7.22;;;1.80;;
52184;SDS011;38160;52.876;18.778;2022-07-06T12:53:24;14.55;;;1.80;;
52184;SDS011;38160;52.876;18.778;2022-07-06T12:56:12;20.08;;;2.50;;
52184;SDS011;38160;52.876;18.778;2022-07-06T12:58:59;5.60;;;1.80;;
52184;SDS011;38160;52.876;18.778;2022-07-06T13:01:29;5.85;;;1.80;;
52184;SDS011;38160;52.876;18.778;2022-07-06T13:04:01;8.28;;;2.02;;
52184;SDS011;38160;52.876;18.778;2022-07-06T13:06:34;5.53;;;1.82;;
52184;SDS011;38160;52.876;18.778;2022-07-06T13:09:07;16.27;;;2.17;;
52184;SDS011;38160;52.876;18.778;2022-07-06T13:11:39;5.75;;;1.67;;
52184;SDS011;38160;52.876;18.778;2022-07-06T13:14:11;6.50;;;1.57;;
52184;SDS011;38160;52.876;18.778;2022-07-06T13:16:44;5.90;;;2.00;;
52184;SDS011;38160;52.876;18.778;2022-07-06T13:19:17;8.45;;;1.70;;
52184;SDS011;38160;52.876;18.778;2022-07-06T13:21:49;12.18;;;2.27;;
52184;SDS011;38160;52.876;18.778;2022-07-06T13:24:20;5.05;;;1.57;;
52184;SDS011;38160;52.876;18.778;2022-07-06T13:26:52;9.83;;;1.90;;
52184;SDS011;38160;52.876;18.778;2022-07-06T13:29:24;18.30;;;3.20;;
52184;SDS011;38160;52.876;18.778;2022-07-06T13:31:56;8.73;;;1.80;;
52184;SDS011;38160;52.876;18.778;2022-07-06T13:34:28;8.80;;;1.98;;
52184;SDS011;38160;52.876;18.778;2022-07-06T13:36:59;6.05;;;2.27;;
52184;SDS011;38160;52.876;18.778;2022-07-06T13:39:32;6.15;;;1.77;;
52184;SDS011;38160;52.876;18.778;2022-07-06T13:42:04;8.33;;;1.77;;
52184;SDS011;38160;52.876;18.778;2022-07-06T13:44:38;8.63;;;1.67;;
52184;SDS011;38160;52.876;18.778;2022-07-06T13:47:09;10.43;;;2.00;;
52184;SDS011;38160;52.876;18.778;2022-07-06T13:49:41;5.80;;;1.40;;
52184;SDS011;38160;52.876;18.778;2022-07-06T13:52:14;12.03;;;1.90;;
52184;SDS011;38160;52.876;18.778;2022-07-06T13:54:46;9.13;;;1.72;;
52184;SDS011;38160;52.876;18.778;2022-07-06T13:57:17;10.45;;;2.05;;
52184;SDS011;38160;52.876;18.778;2022-07-06T13:59:49;6.33;;;1.80;;
52184;SDS011;38160;52.876;18.778;2022-07-06T14:02:21;51.75;;;3.47;;
52184;SDS011;38160;52.876;18.778;2022-07-06T14:04:53;15.68;;;1.98;;
52184;SDS011;38160;52.876;18.778;2022-07-06T14:07:24;8.53;;;2.87;;
52184;SDS011;38160;52.876;18.778;2022-07-06T14:09:56;9.35;;;1.67;;
52184;SDS011;38160;52.876;18.778;2022-07-06T14:12:28;10.35;;;1.65;;
52184;SDS011;38160;52.876;18.778;2022-07-06T14:15:00;7.25;;;1.90;;
52184;SDS011;38160;52.876;18.778;2022-07-06T14:17:32;9.08;;;1.50;;
52184;SDS011;38160;52.876;18.778;2022-07-06T14:23:05;5.45;;;1.60;;
52184;SDS011;38160;52.876;18.778;2022-07-06T14:25:37;6.80;;;1.40;;
52184;SDS011;38160;52.876;18.778;2022-07-06T14:28:20;3.50;;;1.50;;
52184;SDS011;38160;52.876;18.778;2022-07-06T14:33:42;6.22;;;1.70;;
52184;SDS011;38160;52.876;18.778;2022-07-06T14:36:15;19.10;;;2.80;;
52184;SDS011;38160;52.876;18.778;2022-07-06T14:38:46;18.10;;;2.15;;
52184;SDS011;38160;52.876;18.778;2022-07-06T14:41:18;7.15;;;1.80;;
52184;SDS011;38160;52.876;18.778;2022-07-06T14:43:50;11.68;;;1.50;;
52184;SDS011;38160;52.876;18.778;2022-07-06T14:46:22;10.00;;;1.62;;
52184;SDS011;38160;52.876;18.778;2022-07-06T14:48:54;4.05;;;1.42;;
52184;SDS011;38160;52.876;18.778;2022-07-06T14:51:25;4.58;;;1.40;;
52184;SDS011;38160;52.876;18.778;2022-07-06T14:53:57;7.87;;;1.55;;
52184;SDS011;38160;52.876;18.778;2022-07-06T14:56:29;7.53;;;1.75;;
52184;SDS011;38160;52.876;18.778;2022-07-06T14:59:01;14.98;;;2.02;;
52184;SDS011;38160;52.876;18.778;2022-07-06T15:01:33;3.70;;;1.50;;
52184;SDS011;38160;52.876;18.778;2022-07-06T15:04:05;4.92;;;1.70;;
52184;SDS011;38160;52.876;18.778;2022-07-06T15:06:37;11.85;;;1.90;;
52184;SDS011;38160;52.876;18.778;2022-07-06T15:09:09;13.50;;;1.80;;
52184;SDS011;38160;52.876;18.778;2022-07-06T15:11:40;12.20;;;2.15;;
52184;SDS011;38160;52.876;18.778;2022-07-06T15:14:12;18.02;;;2.02;;
52184;SDS011;38160;52.876;18.778;2022-07-06T15:16:46;7.03;;;1.95;;
52184;SDS011;38160;52.876;18.778;2022-07-06T15:19:18;6.50;;;1.92;;
52184;SDS011;38160;52.876;18.778;2022-07-06T15:21:53;7.85;;;1.70;;
52184;SDS011;38160;52.876;18.778;2022-07-06T15:24:25;17.55;;;2.72;;
52184;SDS011;38160;52.876;18.778;2022-07-06T15:27:01;13.78;;;2.67;;
52184;SDS011;38160;52.876;18.778;2022-07-06T15:29:34;19.07;;;3.22;;
52184;SDS011;38160;52.876;18.778;2022-07-06T15:32:06;9.23;;;2.67;;
52184;SDS011;38160;52.876;18.778;2022-07-06T15:37:39;13.70;;;2.90;;
52184;SDS011;38160;52.876;18.778;2022-07-06T15:40:12;15.23;;;2.20;;
52184;SDS011;38160;52.876;18.778;2022-07-06T15:43:06;4.47;;;1.80;;
52184;SDS011;38160;52.876;18.778;2022-07-06T15:45:41;5.47;;;1.85;;
52184;SDS011;38160;52.876;18.778;2022-07-06T15:51:15;12.00;;;2.30;;
52184;SDS011;38160;52.876;18.778;2022-07-06T15:57:09;10.15;;;2.10;;
52184;SDS011;38160;52.876;18.778;2022-07-06T15:59:41;6.45;;;2.15;;
52184;SDS011;38160;52.876;18.778;2022-07-06T16:02:12;11.05;;;1.90;;
52184;SDS011;38160;52.876;18.778;2022-07-06T16:04:46;26.55;;;3.42;;
52184;SDS011;38160;52.876;18.778;2022-07-06T16:07:18;5.25;;;1.70;;
52184;SDS011;38160;52.876;18.778;2022-07-06T16:12:38;8.23;;;1.90;;
52184;SDS011;38160;52.876;18.778;2022-07-06T16:15:11;7.22;;;2.05;;
52184;SDS011;38160;52.876;18.778;2022-07-06T16:17:43;8.00;;;2.30;;
52184;SDS011;38160;52.876;18.778;2022-07-06T16:20:15;12.35;;;1.90;;
52184;SDS011;38160;52.876;18.778;2022-07-06T16:22:47;4.62;;;1.85;;
52184;SDS011;38160;52.876;18.778;2022-07-06T16:25:19;5.20;;;1.80;;
52184;SDS011;38160;52.876;18.778;2022-07-06T16:27:52;18.35;;;2.20;;
52184;SDS011;38160;52.876;18.778;2022-07-06T16:30:24;9.98;;;2.37;;
52184;SDS011;38160;52.876;18.778;2022-07-06T16:32:57;7.30;;;1.80;;
52184;SDS011;38160;52.876;18.778;2022-07-06T16:35:28;4.20;;;1.80;;
52184;SDS011;38160;52.876;18.778;2022-07-06T16:48:03;6.92;;;2.12;;
52184;SDS011;38160;52.876;18.778;2022-07-06T16:57:28;7.22;;;1.82;;
52184;SDS011;38160;52.876;18.778;2022-07-06T17:55:45;4.78;;;1.82;;
52184;SDS011;38160;52.876;18.778;2022-07-06T18:03:55;6.72;;;1.80;;
52184;SDS011;38160;52.876;18.778;2022-07-06T18:06:27;7.35;;;1.80;;
52184;SDS011;38160;52.876;18.778;2022-07-06T18:08:59;3.30;;;1.50;;
52184;SDS011;38160;52.876;18.778;2022-07-06T18:11:31;4.28;;;1.77;;
52184;SDS011;38160;52.876;18.778;2022-07-06T18:26:55;6.80;;;2.27;;
52184;SDS011;38160;52.876;18.778;2022-07-06T18:29:27;5.35;;;2.00;;
52184;SDS011;38160;52.876;18.778;2022-07-06T18:31:58;8.15;;;2.02;;
52184;SDS011;38160;52.876;18.778;2022-07-06T18:34:31;4.62;;;1.60;;
52184;SDS011;38160;52.876;18.778;2022-07-06T19:06:57;5.78;;;1.40;;
52184;SDS011;38160;52.876;18.778;2022-07-06T19:17:41;5.95;;;1.50;;
52184;SDS011;38160;52.876;18.778;2022-07-06T19:28:19;14.28;;;3.12;;
52184;SDS011;38160;52.876;18.778;2022-07-06T19:30:51;11.90;;;3.22;;
52184;SDS011;38160;52.876;18.778;2022-07-06T19:33:23;7.95;;;3.05;;
52184;SDS011;38160;52.876;18.778;2022-07-06T19:35:57;6.75;;;2.50;;
52184;SDS011;38160;52.876;18.778;2022-07-06T19:38:29;6.97;;;2.40;;
52184;SDS011;38160;52.876;18.778;2022-07-06T19:41:02;6.12;;;1.92;;
52184;SDS011;38160;52.876;18.778;2022-07-06T19:43:34;5.67;;;2.08;;
52184;SDS011;38160;52.876;18.778;2022-07-06T20:26:00;5.20;;;1.80;;
52184;SDS011;38160;52.876;18.778;2022-07-06T21:44:37;6.55;;;2.52;;
52184;SDS011;38160;52.876;18.778;2022-07-06T21:47:09;6.45;;;2.52;;
52184;SDS011;38160;52.876;18.778;2022-07-06T21:49:42;7.37;;;2.62;;
52184;SDS011;38160;52.876;18.778;2022-07-06T21:59:28;7.42;;;2.58;;
52184;SDS011;38160;52.876;18.778;2022-07-06T22:02:00;5.75;;;2.40;;
52184;SDS011;38160;52.876;18.778;2022-07-06T22:11:31;6.08;;;2.30;;
52184;SDS011;38160;52.876;18.778;2022-07-06T22:43:33;6.10;;;2.15;;
52184;SDS011;38160;52.876;18.778;2022-07-06T22:49:03;8.90;;;2.22;;
52184;SDS011;38160;52.876;18.778;2022-07-06T22:51:35;4.97;;;2.35;;
52184;SDS011;38160;52.876;18.778;2022-07-06T22:54:08;4.72;;;2.10;;
52184;SDS011;38160;52.876;18.778;2022-07-06T22:56:45;6.55;;;2.45;;
52184;SDS011;38160;52.876;18.778;2022-07-06T22:59:19;4.95;;;2.30;;
52184;SDS011;38160;52.876;18.778;2022-07-06T23:01:53;4.95;;;2.67;;
52184;SDS011;38160;52.876;18.778;2022-07-06T23:04:29;4.72;;;2.30;;
52184;SDS011;38160;52.876;18.778;2022-07-06T23:07:05;4.75;;;2.00;;
52184;SDS011;38160;52.876;18.778;2022-07-06T23:09:36;6.47;;;2.35;;
52184;SDS011;38160;52.876;18.778;2022-07-06T23:12:08;9.10;;;2.72;;
52184;SDS011;38160;52.876;18.778;2022-07-06T23:14:46;4.75;;;2.35;;
52184;SDS011;38160;52.876;18.778;2022-07-06T23:20:19;6.75;;;2.80;;
52184;SDS011;38160;52.876;18.778;2022-07-06T23:22:54;7.20;;;3.17;;
52184;SDS011;38160;52.876;18.778;2022-07-06T23:25:29;8.35;;;2.77;;
52184;SDS011;38160;52.876;18.778;2022-07-06T23:28:03;7.05;;;3.60;;
52184;SDS011;38160;52.876;18.778;2022-07-06T23:30:41;9.70;;;3.50;;
52184;SDS011;38160;52.876;18.778;2022-07-06T23:33:17;9.68;;;4.20;;
52184;SDS011;38160;52.876;18.778;2022-07-06T23:35:54;8.78;;;4.08;;
52184;SDS011;38160;52.876;18.778;2022-07-06T23:38:31;9.85;;;3.83;;
52184;SDS011;38160;52.876;18.778;2022-07-06T23:41:04;9.58;;;3.85;;
52184;SDS011;38160;52.876;18.778;2022-07-06T23:43:42;11.28;;;3.70;;
52184;SDS011;38160;52.876;18.778;2022-07-06T23:46:17;7.87;;;3.75;;
52184;SDS011;38160;52.876;18.778;2022-07-06T23:48:51;9.40;;;3.40;;
52184;SDS011;38160;52.876;18.778;2022-07-06T23:55:34;7.80;;;3.30;;
52184;SDS011;38160;52.876;18.778;2022-07-06T23:58:11;6.00;;;3.02;;
